sensor_id;sensor_type;location;lat;lon;timestamp;P1;durP1;ratioP1;P2;durP2;ratioP2
50350;SDS011;36250;48.740;22.174;2023-10-19T00:00:39;140.95;;;32.42;;
50350;SDS011;36250;48.740;22.174;2023-10-19T00:03:09;263.60;;;87.50;;
50350;SDS011;36250;48.740;22.174;2023-10-19T00:05:36;151.00;;;57.45;;
50350;SDS011;36250;48.740;22.174;2023-10-19T00:08:02;110.85;;;41.13;;
50350;SDS011;36250;48.740;22.174;2023-10-19T00:10:51;136.80;;;52.10;;
50350;SDS011;36250;48.740;22.174;2023-10-19T00:13:34;106.07;;;44.42;;
50350;SDS011;36250;48.740;22.174;2023-10-19T00:16:06;171.20;;;61.25;;
50350;SDS011;36250;48.740;22.174;2023-10-19T00:18:45;129.05;;;50.15;;
50350;SDS011;36250;48.740;22.174;2023-10-19T00:21:13;142.77;;;59.47;;
50350;SDS011;36250;48.740;22.174;2023-10-19T00:23:46;100.68;;;43.95;;
50350;SDS011;36250;48.740;22.174;2023-10-19T00:26:13;135.60;;;57.72;;
50350;SDS011;36250;48.740;22.174;2023-10-19T00:28:48;147.70;;;64.97;;
50350;SDS011;36250;48.740;22.174;2023-10-19T00:31:18;106.05;;;45.90;;
50350;SDS011;36250;48.740;22.174;2023-10-19T00:33:45;53.38;;;26.85;;
50350;SDS011;36250;48.740;22.174;2023-10-19T00:36:11;85.82;;;38.95;;
50350;SDS011;36250;48.740;22.174;2023-10-19T00:38:40;66.43;;;32.35;;
50350;SDS011;36250;48.740;22.174;2023-10-19T00:41:22;42.67;;;20.52;;
50350;SDS011;36250;48.740;22.174;2023-10-19T00:43:48;34.55;;;17.98;;
50350;SDS011;36250;48.740;22.174;2023-10-19T00:46:20;39.20;;;17.30;;
50350;SDS011;36250;48.740;22.174;2023-10-19T00:48:50;35.40;;;17.65;;
50350;SDS011;36250;48.740;22.174;2023-10-19T00:51:22;31.77;;;16.38;;
50350;SDS011;36250;48.740;22.174;2023-10-19T00:54:11;29.42;;;15.02;;
50350;SDS011;36250;48.740;22.174;2023-10-19T00:56:45;35.25;;;17.98;;
50350;SDS011;36250;48.740;22.174;2023-10-19T00:59:17;34.67;;;16.83;;
50350;SDS011;36250;48.740;22.174;2023-10-19T01:01:52;32.03;;;17.15;;
50350;SDS011;36250;48.740;22.174;2023-10-19T01:04:19;33.40;;;18.13;;
50350;SDS011;36250;48.740;22.174;2023-10-19T01:06:48;42.70;;;21.20;;
50350;SDS011;36250;48.740;22.174;2023-10-19T01:09:32;43.47;;;22.23;;
50350;SDS011;36250;48.740;22.174;2023-10-19T01:12:04;60.45;;;28.58;;
50350;SDS011;36250;48.740;22.174;2023-10-19T01:17:36;31.63;;;15.70;;
50350;SDS011;36250;48.740;22.174;2023-10-19T01:20:06;74.07;;;35.25;;
50350;SDS011;36250;48.740;22.174;2023-10-19T01:23:01;115.93;;;51.40;;
50350;SDS011;36250;48.740;22.174;2023-10-19T01:28:07;68.85;;;33.38;;
50350;SDS011;36250;48.740;22.174;2023-10-19T01:30:34;44.65;;;22.02;;
50350;SDS011;36250;48.740;22.174;2023-10-19T01:33:00;34.00;;;16.67;;
50350;SDS011;36250;48.740;22.174;2023-10-19T01:35:25;25.42;;;13.77;;
50350;SDS011;36250;48.740;22.174;2023-10-19T01:37:52;23.02;;;12.90;;
50350;SDS011;36250;48.740;22.174;2023-10-19T01:40:17;25.15;;;15.02;;
50350;SDS011;36250;48.740;22.174;2023-10-19T01:42:45;26.13;;;14.85;;
50350;SDS011;36250;48.740;22.174;2023-10-19T01:45:11;31.60;;;16.95;;
50350;SDS011;36250;48.740;22.174;2023-10-19T01:47:37;34.67;;;19.33;;
50350;SDS011;36250;48.740;22.174;2023-10-19T01:50:02;28.23;;;14.88;;
50350;SDS011;36250;48.740;22.174;2023-10-19T01:52:30;29.25;;;14.57;;
50350;SDS011;36250;48.740;22.174;2023-10-19T01:54:55;32.75;;;17.42;;
50350;SDS011;36250;48.740;22.174;2023-10-19T01:57:27;24.45;;;13.90;;
50350;SDS011;36250;48.740;22.174;2023-10-19T01:59:53;34.95;;;16.00;;
50350;SDS011;36250;48.740;22.174;2023-10-19T02:02:18;26.63;;;16.27;;
50350;SDS011;36250;48.740;22.174;2023-10-19T02:04:46;32.58;;;17.05;;
50350;SDS011;36250;48.740;22.174;2023-10-19T02:07:14;31.35;;;17.98;;
50350;SDS011;36250;48.740;22.174;2023-10-19T02:09:43;29.83;;;17.45;;
50350;SDS011;36250;48.740;22.174;2023-10-19T02:12:08;28.42;;;16.88;;
50350;SDS011;36250;48.740;22.174;2023-10-19T02:14:33;34.47;;;17.50;;
50350;SDS011;36250;48.740;22.174;2023-10-19T02:16:59;44.97;;;22.98;;
50350;SDS011;36250;48.740;22.174;2023-10-19T02:19:28;39.90;;;23.00;;
50350;SDS011;36250;48.740;22.174;2023-10-19T02:22:00;41.17;;;22.30;;
50350;SDS011;36250;48.740;22.174;2023-10-19T02:24:30;43.20;;;24.48;;
50350;SDS011;36250;48.740;22.174;2023-10-19T02:26:56;40.55;;;22.42;;
50350;SDS011;36250;48.740;22.174;2023-10-19T02:29:22;46.90;;;23.95;;
50350;SDS011;36250;48.740;22.174;2023-10-19T02:31:48;41.00;;;22.10;;
50350;SDS011;36250;48.740;22.174;2023-10-19T02:34:14;26.08;;;15.80;;
50350;SDS011;36250;48.740;22.174;2023-10-19T02:36:40;22.63;;;14.18;;
50350;SDS011;36250;48.740;22.174;2023-10-19T02:39:07;30.55;;;14.60;;
50350;SDS011;36250;48.740;22.174;2023-10-19T02:41:34;21.30;;;14.18;;
50350;SDS011;36250;48.740;22.174;2023-10-19T02:44:01;24.67;;;14.15;;
50350;SDS011;36250;48.740;22.174;2023-10-19T02:46:31;25.27;;;15.10;;
50350;SDS011;36250;48.740;22.174;2023-10-19T02:49:00;26.77;;;15.82;;
50350;SDS011;36250;48.740;22.174;2023-10-19T02:51:30;24.50;;;14.70;;
50350;SDS011;36250;48.740;22.174;2023-10-19T02:53:56;25.02;;;15.63;;
50350;SDS011;36250;48.740;22.174;2023-10-19T02:56:22;24.63;;;14.70;;
50350;SDS011;36250;48.740;22.174;2023-10-19T02:58:51;24.33;;;15.13;;
50350;SDS011;36250;48.740;22.174;2023-10-19T03:01:18;26.73;;;15.43;;
50350;SDS011;36250;48.740;22.174;2023-10-19T03:03:52;23.67;;;14.52;;
50350;SDS011;36250;48.740;22.174;2023-10-19T03:06:21;27.50;;;15.93;;
50350;SDS011;36250;48.740;22.174;2023-10-19T03:08:48;24.00;;;16.30;;
50350;SDS011;36250;48.740;22.174;2023-10-19T03:11:22;25.73;;;13.38;;
50350;SDS011;36250;48.740;22.174;2023-10-19T03:13:50;29.05;;;15.30;;
50350;SDS011;36250;48.740;22.174;2023-10-19T03:16:17;25.08;;;15.35;;
50350;SDS011;36250;48.740;22.174;2023-10-19T03:18:44;24.42;;;14.57;;
50350;SDS011;36250;48.740;22.174;2023-10-19T03:21:09;20.08;;;13.63;;
50350;SDS011;36250;48.740;22.174;2023-10-19T03:23:36;22.42;;;15.40;;
50350;SDS011;36250;48.740;22.174;2023-10-19T03:26:02;23.33;;;15.27;;
50350;SDS011;36250;48.740;22.174;2023-10-19T03:28:48;24.70;;;15.00;;
50350;SDS011;36250;48.740;22.174;2023-10-19T03:31:14;23.48;;;14.98;;
50350;SDS011;36250;48.740;22.174;2023-10-19T03:33:50;23.77;;;14.13;;
50350;SDS011;36250;48.740;22.174;2023-10-19T03:36:23;24.77;;;14.05;;
50350;SDS011;36250;48.740;22.174;2023-10-19T03:38:50;21.60;;;13.40;;
50350;SDS011;36250;48.740;22.174;2023-10-19T03:41:17;25.48;;;14.57;;
50350;SDS011;36250;48.740;22.174;2023-10-19T03:43:47;21.00;;;14.43;;
50350;SDS011;36250;48.740;22.174;2023-10-19T03:46:14;23.23;;;13.35;;
50350;SDS011;36250;48.740;22.174;2023-10-19T03:48:47;20.40;;;14.98;;
50350;SDS011;36250;48.740;22.174;2023-10-19T03:51:13;21.45;;;14.48;;
50350;SDS011;36250;48.740;22.174;2023-10-19T03:53:39;25.55;;;15.32;;
50350;SDS011;36250;48.740;22.174;2023-10-19T03:56:08;28.40;;;17.13;;
50350;SDS011;36250;48.740;22.174;2023-10-19T03:58:36;24.77;;;15.23;;
50350;SDS011;36250;48.740;22.174;2023-10-19T04:01:03;24.00;;;15.68;;
50350;SDS011;36250;48.740;22.174;2023-10-19T04:03:30;25.02;;;15.30;;
50350;SDS011;36250;48.740;22.174;2023-10-19T04:05:56;21.88;;;14.35;;
50350;SDS011;36250;48.740;22.174;2023-10-19T04:08:22;20.83;;;15.07;;
50350;SDS011;36250;48.740;22.174;2023-10-19T04:10:51;22.77;;;14.38;;
50350;SDS011;36250;48.740;22.174;2023-10-19T04:13:35;23.80;;;14.50;;
50350;SDS011;36250;48.740;22.174;2023-10-19T04:16:02;21.35;;;15.02;;
50350;SDS011;36250;48.740;22.174;2023-10-19T04:18:28;23.58;;;16.08;;
50350;SDS011;36250;48.740;22.174;2023-10-19T04:20:54;22.80;;;15.88;;
50350;SDS011;36250;48.740;22.174;2023-10-19T04:23:19;24.13;;;16.90;;
50350;SDS011;36250;48.740;22.174;2023-10-19T04:25:52;27.15;;;16.55;;
50350;SDS011;36250;48.740;22.174;2023-10-19T04:28:18;25.35;;;15.20;;
50350;SDS011;36250;48.740;22.174;2023-10-19T04:30:55;26.33;;;16.00;;
50350;SDS011;36250;48.740;22.174;2023-10-19T04:33:20;22.73;;;15.40;;
50350;SDS011;36250;48.740;22.174;2023-10-19T04:35:47;21.70;;;13.88;;
50350;SDS011;36250;48.740;22.174;2023-10-19T04:38:20;28.90;;;15.90;;
50350;SDS011;36250;48.740;22.174;2023-10-19T04:40:46;29.25;;;16.73;;
50350;SDS011;36250;48.740;22.174;2023-10-19T04:43:11;35.88;;;19.33;;
50350;SDS011;36250;48.740;22.174;2023-10-19T04:45:39;34.65;;;18.25;;
50350;SDS011;36250;48.740;22.174;2023-10-19T04:48:05;39.45;;;26.17;;
50350;SDS011;36250;48.740;22.174;2023-10-19T04:50:31;30.20;;;20.00;;
50350;SDS011;36250;48.740;22.174;2023-10-19T04:52:56;25.63;;;17.77;;
50350;SDS011;36250;48.740;22.174;2023-10-19T04:55:21;28.23;;;17.48;;
50350;SDS011;36250;48.740;22.174;2023-10-19T04:57:47;28.92;;;17.63;;
50350;SDS011;36250;48.740;22.174;2023-10-19T05:00:13;28.00;;;17.17;;
50350;SDS011;36250;48.740;22.174;2023-10-19T05:02:39;29.17;;;17.35;;
50350;SDS011;36250;48.740;22.174;2023-10-19T05:05:05;28.23;;;16.50;;
50350;SDS011;36250;48.740;22.174;2023-10-19T05:07:30;24.42;;;14.55;;
50350;SDS011;36250;48.740;22.174;2023-10-19T05:09:55;22.10;;;13.50;;
50350;SDS011;36250;48.740;22.174;2023-10-19T05:12:21;19.77;;;12.73;;
50350;SDS011;36250;48.740;22.174;2023-10-19T05:14:46;15.35;;;10.95;;
50350;SDS011;36250;48.740;22.174;2023-10-19T05:17:12;18.00;;;11.15;;
50350;SDS011;36250;48.740;22.174;2023-10-19T05:19:39;16.05;;;10.82;;
50350;SDS011;36250;48.740;22.174;2023-10-19T05:22:05;19.10;;;12.52;;
50350;SDS011;36250;48.740;22.174;2023-10-19T05:24:32;19.67;;;13.38;;
50350;SDS011;36250;48.740;22.174;2023-10-19T05:26:57;18.60;;;13.32;;
50350;SDS011;36250;48.740;22.174;2023-10-19T05:29:23;22.15;;;14.20;;
50350;SDS011;36250;48.740;22.174;2023-10-19T05:31:50;23.98;;;14.13;;
50350;SDS011;36250;48.740;22.174;2023-10-19T05:34:18;24.00;;;14.45;;
50350;SDS011;36250;48.740;22.174;2023-10-19T05:36:45;16.20;;;12.60;;
50350;SDS011;36250;48.740;22.174;2023-10-19T05:39:13;26.05;;;16.70;;
50350;SDS011;36250;48.740;22.174;2023-10-19T05:41:39;28.55;;;18.38;;
50350;SDS011;36250;48.740;22.174;2023-10-19T05:44:05;29.33;;;18.67;;
50350;SDS011;36250;48.740;22.174;2023-10-19T05:46:30;24.98;;;17.33;;
50350;SDS011;36250;48.740;22.174;2023-10-19T05:48:56;32.13;;;19.17;;
50350;SDS011;36250;48.740;22.174;2023-10-19T05:51:22;25.05;;;16.70;;
50350;SDS011;36250;48.740;22.174;2023-10-19T05:53:48;23.65;;;16.38;;
50350;SDS011;36250;48.740;22.174;2023-10-19T05:56:13;25.15;;;17.00;;
50350;SDS011;36250;48.740;22.174;2023-10-19T05:58:41;23.67;;;16.55;;
50350;SDS011;36250;48.740;22.174;2023-10-19T06:01:06;22.55;;;15.13;;
50350;SDS011;36250;48.740;22.174;2023-10-19T06:03:32;21.50;;;15.02;;
50350;SDS011;36250;48.740;22.174;2023-10-19T06:05:57;30.83;;;16.48;;
50350;SDS011;36250;48.740;22.174;2023-10-19T06:08:23;20.70;;;15.05;;
50350;SDS011;36250;48.740;22.174;2023-10-19T06:10:51;27.00;;;16.75;;
50350;SDS011;36250;48.740;22.174;2023-10-19T06:13:17;21.65;;;14.27;;
50350;SDS011;36250;48.740;22.174;2023-10-19T06:15:43;20.20;;;13.77;;
50350;SDS011;36250;48.740;22.174;2023-10-19T06:18:08;20.00;;;13.48;;
50350;SDS011;36250;48.740;22.174;2023-10-19T06:20:35;26.52;;;15.23;;
50350;SDS011;36250;48.740;22.174;2023-10-19T06:23:01;22.33;;;14.68;;
50350;SDS011;36250;48.740;22.174;2023-10-19T06:25:30;21.35;;;13.60;;
50350;SDS011;36250;48.740;22.174;2023-10-19T06:27:56;21.95;;;14.27;;
50350;SDS011;36250;48.740;22.174;2023-10-19T06:30:24;22.13;;;13.85;;
50350;SDS011;36250;48.740;22.174;2023-10-19T06:32:52;17.73;;;12.98;;
50350;SDS011;36250;48.740;22.174;2023-10-19T06:35:22;20.95;;;13.70;;
50350;SDS011;36250;48.740;22.174;2023-10-19T06:37:48;19.40;;;12.45;;
50350;SDS011;36250;48.740;22.174;2023-10-19T06:40:14;19.35;;;12.85;;
50350;SDS011;36250;48.740;22.174;2023-10-19T06:42:41;21.40;;;13.50;;
50350;SDS011;36250;48.740;22.174;2023-10-19T06:45:08;19.98;;;13.02;;
50350;SDS011;36250;48.740;22.174;2023-10-19T06:47:35;20.23;;;14.07;;
50350;SDS011;36250;48.740;22.174;2023-10-19T06:50:04;20.08;;;13.45;;
50350;SDS011;36250;48.740;22.174;2023-10-19T06:52:33;21.70;;;13.25;;
50350;SDS011;36250;48.740;22.174;2023-10-19T06:55:00;22.80;;;15.15;;
50350;SDS011;36250;48.740;22.174;2023-10-19T06:57:27;19.30;;;13.32;;
50350;SDS011;36250;48.740;22.174;2023-10-19T06:59:52;19.70;;;13.25;;
50350;SDS011;36250;48.740;22.174;2023-10-19T07:02:18;21.60;;;12.68;;
50350;SDS011;36250;48.740;22.174;2023-10-19T07:04:45;21.20;;;13.00;;
50350;SDS011;36250;48.740;22.174;2023-10-19T07:07:12;19.55;;;13.55;;
50350;SDS011;36250;48.740;22.174;2023-10-19T07:09:38;19.92;;;14.10;;
50350;SDS011;36250;48.740;22.174;2023-10-19T07:12:04;20.23;;;12.77;;
50350;SDS011;36250;48.740;22.174;2023-10-19T07:14:29;22.20;;;14.32;;
50350;SDS011;36250;48.740;22.174;2023-10-19T07:16:57;17.27;;;12.55;;
50350;SDS011;36250;48.740;22.174;2023-10-19T07:19:23;22.83;;;14.80;;
50350;SDS011;36250;48.740;22.174;2023-10-19T07:21:48;19.23;;;13.30;;
50350;SDS011;36250;48.740;22.174;2023-10-19T07:24:15;22.27;;;13.52;;
50350;SDS011;36250;48.740;22.174;2023-10-19T07:26:44;19.02;;;13.50;;
50350;SDS011;36250;48.740;22.174;2023-10-19T07:29:18;22.33;;;13.75;;
50350;SDS011;36250;48.740;22.174;2023-10-19T07:31:44;20.67;;;14.00;;
50350;SDS011;36250;48.740;22.174;2023-10-19T07:34:10;24.00;;;14.70;;
50350;SDS011;36250;48.740;22.174;2023-10-19T07:36:40;24.02;;;13.45;;
50350;SDS011;36250;48.740;22.174;2023-10-19T07:39:07;20.42;;;14.23;;
50350;SDS011;36250;48.740;22.174;2023-10-19T07:41:39;20.15;;;13.63;;
50350;SDS011;36250;48.740;22.174;2023-10-19T07:44:05;20.25;;;14.95;;
50350;SDS011;36250;48.740;22.174;2023-10-19T07:46:30;25.15;;;18.65;;
50350;SDS011;36250;48.740;22.174;2023-10-19T07:48:56;35.65;;;24.48;;
50350;SDS011;36250;48.740;22.174;2023-10-19T07:51:24;35.20;;;21.83;;
50350;SDS011;36250;48.740;22.174;2023-10-19T07:53:50;26.55;;;16.83;;
50350;SDS011;36250;48.740;22.174;2023-10-19T07:56:16;27.20;;;16.73;;
50350;SDS011;36250;48.740;22.174;2023-10-19T07:58:42;26.67;;;16.27;;
50350;SDS011;36250;48.740;22.174;2023-10-19T08:01:07;26.70;;;17.05;;
50350;SDS011;36250;48.740;22.174;2023-10-19T08:03:33;27.83;;;16.05;;
50350;SDS011;36250;48.740;22.174;2023-10-19T08:05:59;23.77;;;15.13;;
50350;SDS011;36250;48.740;22.174;2023-10-19T08:08:24;24.05;;;14.10;;
50350;SDS011;36250;48.740;22.174;2023-10-19T08:10:49;21.98;;;14.10;;
50350;SDS011;36250;48.740;22.174;2023-10-19T08:13:15;22.83;;;14.43;;
50350;SDS011;36250;48.740;22.174;2023-10-19T08:15:40;20.25;;;13.20;;
50350;SDS011;36250;48.740;22.174;2023-10-19T08:18:06;22.02;;;12.50;;
50350;SDS011;36250;48.740;22.174;2023-10-19T08:20:31;23.70;;;12.95;;
50350;SDS011;36250;48.740;22.174;2023-10-19T08:22:57;17.70;;;12.90;;
50350;SDS011;36250;48.740;22.174;2023-10-19T08:25:24;19.45;;;13.30;;
50350;SDS011;36250;48.740;22.174;2023-10-19T08:27:52;26.90;;;16.30;;
50350;SDS011;36250;48.740;22.174;2023-10-19T08:30:21;29.83;;;16.77;;
50350;SDS011;36250;48.740;22.174;2023-10-19T08:32:47;20.00;;;11.95;;
50350;SDS011;36250;48.740;22.174;2023-10-19T08:35:13;18.63;;;11.55;;
50350;SDS011;36250;48.740;22.174;2023-10-19T08:37:40;22.45;;;12.82;;
50350;SDS011;36250;48.740;22.174;2023-10-19T08:40:14;18.40;;;11.07;;
50350;SDS011;36250;48.740;22.174;2023-10-19T08:42:41;17.02;;;10.63;;
50350;SDS011;36250;48.740;22.174;2023-10-19T08:45:07;18.92;;;10.68;;
50350;SDS011;36250;48.740;22.174;2023-10-19T08:47:37;17.80;;;11.07;;
50350;SDS011;36250;48.740;22.174;2023-10-19T08:50:08;15.43;;;10.20;;
50350;SDS011;36250;48.740;22.174;2023-10-19T08:52:34;19.42;;;11.30;;
50350;SDS011;36250;48.740;22.174;2023-10-19T08:55:02;15.05;;;10.25;;
50350;SDS011;36250;48.740;22.174;2023-10-19T08:57:29;21.25;;;11.23;;
50350;SDS011;36250;48.740;22.174;2023-10-19T08:59:54;16.23;;;10.27;;
50350;SDS011;36250;48.740;22.174;2023-10-19T09:02:23;17.17;;;9.68;;
50350;SDS011;36250;48.740;22.174;2023-10-19T09:04:48;28.73;;;15.98;;
50350;SDS011;36250;48.740;22.174;2023-10-19T09:07:16;25.23;;;12.98;;
50350;SDS011;36250;48.740;22.174;2023-10-19T09:09:41;23.83;;;12.98;;
50350;SDS011;36250;48.740;22.174;2023-10-19T09:12:07;22.17;;;11.82;;
50350;SDS011;36250;48.740;22.174;2023-10-19T09:14:33;19.65;;;11.35;;
50350;SDS011;36250;48.740;22.174;2023-10-19T09:17:06;20.15;;;11.23;;
50350;SDS011;36250;48.740;22.174;2023-10-19T09:22:12;260.25;;;44.10;;
50350;SDS011;36250;48.740;22.174;2023-10-19T09:24:46;20.73;;;15.27;;
50350;SDS011;36250;48.740;22.174;2023-10-19T09:27:16;26.42;;;13.00;;
50350;SDS011;36250;48.740;22.174;2023-10-19T09:29:42;18.98;;;11.85;;
50350;SDS011;36250;48.740;22.174;2023-10-19T09:32:08;18.25;;;12.20;;
50350;SDS011;36250;48.740;22.174;2023-10-19T09:34:33;22.52;;;13.70;;
50350;SDS011;36250;48.740;22.174;2023-10-19T09:36:59;21.02;;;15.93;;
50350;SDS011;36250;48.740;22.174;2023-10-19T09:39:29;25.00;;;17.38;;
50350;SDS011;36250;48.740;22.174;2023-10-19T09:42:00;24.92;;;16.83;;
50350;SDS011;36250;48.740;22.174;2023-10-19T09:44:34;27.17;;;17.73;;
50350;SDS011;36250;48.740;22.174;2023-10-19T09:47:08;21.33;;;16.17;;
50350;SDS011;36250;48.740;22.174;2023-10-19T09:49:37;31.85;;;18.33;;
50350;SDS011;36250;48.740;22.174;2023-10-19T09:52:03;41.20;;;23.35;;
50350;SDS011;36250;48.740;22.174;2023-10-19T09:57:20;26.75;;;16.70;;
50350;SDS011;36250;48.740;22.174;2023-10-19T09:59:56;38.50;;;23.38;;
50350;SDS011;36250;48.740;22.174;2023-10-19T10:02:33;26.75;;;17.77;;
50350;SDS011;36250;48.740;22.174;2023-10-19T10:05:00;37.45;;;23.23;;
50350;SDS011;36250;48.740;22.174;2023-10-19T10:07:26;34.60;;;20.38;;
50350;SDS011;36250;48.740;22.174;2023-10-19T10:09:52;33.30;;;24.27;;
50350;SDS011;36250;48.740;22.174;2023-10-19T10:14:54;38.00;;;22.57;;
50350;SDS011;36250;48.740;22.174;2023-10-19T10:17:36;29.13;;;18.27;;
50350;SDS011;36250;48.740;22.174;2023-10-19T10:22:36;25.95;;;19.88;;
50350;SDS011;36250;48.740;22.174;2023-10-19T10:25:02;29.45;;;20.23;;
50350;SDS011;36250;48.740;22.174;2023-10-19T10:27:27;41.30;;;28.55;;
50350;SDS011;36250;48.740;22.174;2023-10-19T10:29:56;28.27;;;18.67;;
50350;SDS011;36250;48.740;22.174;2023-10-19T10:38:06;24.45;;;17.45;;
50350;SDS011;36250;48.740;22.174;2023-10-19T10:40:43;24.83;;;17.13;;
50350;SDS011;36250;48.740;22.174;2023-10-19T10:43:08;26.65;;;19.05;;
50350;SDS011;36250;48.740;22.174;2023-10-19T10:45:35;27.10;;;19.48;;
50350;SDS011;36250;48.740;22.174;2023-10-19T10:48:01;34.17;;;21.20;;
50350;SDS011;36250;48.740;22.174;2023-10-19T10:50:26;25.75;;;18.25;;
50350;SDS011;36250;48.740;22.174;2023-10-19T10:52:55;22.10;;;15.55;;
50350;SDS011;36250;48.740;22.174;2023-10-19T10:55:22;25.60;;;15.88;;
50350;SDS011;36250;48.740;22.174;2023-10-19T10:57:50;22.70;;;17.27;;
50350;SDS011;36250;48.740;22.174;2023-10-19T11:00:16;25.23;;;18.27;;
50350;SDS011;36250;48.740;22.174;2023-10-19T11:02:44;22.52;;;18.55;;
50350;SDS011;36250;48.740;22.174;2023-10-19T11:05:17;24.95;;;18.27;;
50350;SDS011;36250;48.740;22.174;2023-10-19T11:10:30;18.08;;;14.38;;
50350;SDS011;36250;48.740;22.174;2023-10-19T11:13:02;16.83;;;13.75;;
50350;SDS011;36250;48.740;22.174;2023-10-19T11:15:29;16.70;;;13.23;;
50350;SDS011;36250;48.740;22.174;2023-10-19T11:17:55;18.75;;;14.65;;
50350;SDS011;36250;48.740;22.174;2023-10-19T11:20:21;16.20;;;13.23;;
50350;SDS011;36250;48.740;22.174;2023-10-19T11:22:48;22.92;;;15.68;;
50350;SDS011;36250;48.740;22.174;2023-10-19T11:25:18;14.93;;;12.48;;
50350;SDS011;36250;48.740;22.174;2023-10-19T11:27:48;16.73;;;12.13;;
50350;SDS011;36250;48.740;22.174;2023-10-19T11:30:14;16.90;;;13.38;;
50350;SDS011;36250;48.740;22.174;2023-10-19T11:32:50;19.15;;;13.98;;
50350;SDS011;36250;48.740;22.174;2023-10-19T11:35:21;15.52;;;11.00;;
50350;SDS011;36250;48.740;22.174;2023-10-19T11:37:48;15.32;;;11.85;;
50350;SDS011;36250;48.740;22.174;2023-10-19T11:40:18;18.58;;;13.60;;
50350;SDS011;36250;48.740;22.174;2023-10-19T11:42:44;14.10;;;10.80;;
50350;SDS011;36250;48.740;22.174;2023-10-19T11:45:10;13.30;;;10.20;;
50350;SDS011;36250;48.740;22.174;2023-10-19T11:47:39;14.15;;;11.38;;
50350;SDS011;36250;48.740;22.174;2023-10-19T11:50:06;9.32;;;8.32;;
50350;SDS011;36250;48.740;22.174;2023-10-19T11:52:31;9.93;;;7.85;;
50350;SDS011;36250;48.740;22.174;2023-10-19T11:54:57;8.43;;;7.55;;
50350;SDS011;36250;48.740;22.174;2023-10-19T11:57:23;12.10;;;10.80;;
50350;SDS011;36250;48.740;22.174;2023-10-19T11:59:50;13.00;;;9.50;;
50350;SDS011;36250;48.740;22.174;2023-10-19T12:02:20;15.10;;;11.98;;
50350;SDS011;36250;48.740;22.174;2023-10-19T12:04:46;17.38;;;12.93;;
50350;SDS011;36250;48.740;22.174;2023-10-19T12:07:12;16.83;;;14.30;;
50350;SDS011;36250;48.740;22.174;2023-10-19T12:09:37;14.40;;;11.48;;
50350;SDS011;36250;48.740;22.174;2023-10-19T12:12:06;11.25;;;9.55;;
50350;SDS011;36250;48.740;22.174;2023-10-19T12:14:32;10.30;;;9.13;;
50350;SDS011;36250;48.740;22.174;2023-10-19T12:17:00;13.32;;;11.05;;
50350;SDS011;36250;48.740;22.174;2023-10-19T12:19:27;16.08;;;13.35;;
50350;SDS011;36250;48.740;22.174;2023-10-19T12:21:54;12.10;;;10.57;;
50350;SDS011;36250;48.740;22.174;2023-10-19T12:24:20;16.23;;;12.68;;
50350;SDS011;36250;48.740;22.174;2023-10-19T12:26:46;12.32;;;10.48;;
50350;SDS011;36250;48.740;22.174;2023-10-19T12:29:12;24.42;;;17.25;;
50350;SDS011;36250;48.740;22.174;2023-10-19T12:31:39;13.27;;;11.10;;
50350;SDS011;36250;48.740;22.174;2023-10-19T12:34:05;12.05;;;10.48;;
50350;SDS011;36250;48.740;22.174;2023-10-19T12:36:31;22.00;;;14.93;;
50350;SDS011;36250;48.740;22.174;2023-10-19T12:38:57;14.02;;;12.32;;
50350;SDS011;36250;48.740;22.174;2023-10-19T12:41:23;8.52;;;7.40;;
50350;SDS011;36250;48.740;22.174;2023-10-19T12:43:52;11.43;;;8.02;;
50350;SDS011;36250;48.740;22.174;2023-10-19T12:46:22;15.52;;;12.38;;
50350;SDS011;36250;48.740;22.174;2023-10-19T12:48:58;8.55;;;6.93;;
50350;SDS011;36250;48.740;22.174;2023-10-19T12:51:23;10.18;;;9.15;;
50350;SDS011;36250;48.740;22.174;2023-10-19T12:53:53;9.75;;;8.65;;
50350;SDS011;36250;48.740;22.174;2023-10-19T12:56:19;14.70;;;10.98;;
50350;SDS011;36250;48.740;22.174;2023-10-19T12:58:45;12.35;;;9.27;;
50350;SDS011;36250;48.740;22.174;2023-10-19T13:01:10;9.88;;;8.88;;
50350;SDS011;36250;48.740;22.174;2023-10-19T13:03:43;8.85;;;7.95;;
50350;SDS011;36250;48.740;22.174;2023-10-19T13:06:11;7.80;;;6.88;;
50350;SDS011;36250;48.740;22.174;2023-10-19T13:08:37;6.60;;;6.00;;
50350;SDS011;36250;48.740;22.174;2023-10-19T13:11:05;7.93;;;7.13;;
50350;SDS011;36250;48.740;22.174;2023-10-19T13:13:31;14.00;;;11.25;;
50350;SDS011;36250;48.740;22.174;2023-10-19T13:15:57;11.20;;;10.00;;
50350;SDS011;36250;48.740;22.174;2023-10-19T13:18:22;9.48;;;7.60;;
50350;SDS011;36250;48.740;22.174;2023-10-19T13:20:54;9.63;;;6.95;;
50350;SDS011;36250;48.740;22.174;2023-10-19T13:23:21;9.48;;;7.20;;
50350;SDS011;36250;48.740;22.174;2023-10-19T13:25:47;6.65;;;6.05;;
50350;SDS011;36250;48.740;22.174;2023-10-19T13:28:22;8.57;;;7.68;;
50350;SDS011;36250;48.740;22.174;2023-10-19T13:30:52;11.95;;;9.82;;
50350;SDS011;36250;48.740;22.174;2023-10-19T13:33:21;12.27;;;7.38;;
50350;SDS011;36250;48.740;22.174;2023-10-19T13:35:47;9.75;;;8.73;;
50350;SDS011;36250;48.740;22.174;2023-10-19T13:38:13;15.57;;;7.53;;
50350;SDS011;36250;48.740;22.174;2023-10-19T13:40:41;7.88;;;7.07;;
50350;SDS011;36250;48.740;22.174;2023-10-19T13:43:08;11.82;;;9.27;;
50350;SDS011;36250;48.740;22.174;2023-10-19T13:45:34;13.80;;;8.18;;
50350;SDS011;36250;48.740;22.174;2023-10-19T13:48:05;9.38;;;8.35;;
50350;SDS011;36250;48.740;22.174;2023-10-19T13:50:32;10.70;;;9.38;;
50350;SDS011;36250;48.740;22.174;2023-10-19T13:52:59;10.63;;;9.43;;
50350;SDS011;36250;48.740;22.174;2023-10-19T13:55:30;19.92;;;11.13;;
50350;SDS011;36250;48.740;22.174;2023-10-19T13:57:55;9.50;;;8.45;;
50350;SDS011;36250;48.740;22.174;2023-10-19T14:00:22;11.45;;;10.02;;
50350;SDS011;36250;48.740;22.174;2023-10-19T14:03:04;11.30;;;9.63;;
50350;SDS011;36250;48.740;22.174;2023-10-19T14:05:30;11.55;;;10.38;;
50350;SDS011;36250;48.740;22.174;2023-10-19T14:08:01;8.80;;;7.90;;
50350;SDS011;36250;48.740;22.174;2023-10-19T14:10:28;8.30;;;7.40;;
50350;SDS011;36250;48.740;22.174;2023-10-19T14:12:54;10.93;;;7.43;;
50350;SDS011;36250;48.740;22.174;2023-10-19T14:15:20;9.52;;;7.43;;
50350;SDS011;36250;48.740;22.174;2023-10-19T14:17:47;8.00;;;6.85;;
50350;SDS011;36250;48.740;22.174;2023-10-19T14:20:14;7.97;;;7.18;;
50350;SDS011;36250;48.740;22.174;2023-10-19T14:22:42;10.80;;;7.28;;
50350;SDS011;36250;48.740;22.174;2023-10-19T14:25:09;9.43;;;7.82;;
50350;SDS011;36250;48.740;22.174;2023-10-19T14:27:41;8.30;;;7.50;;
50350;SDS011;36250;48.740;22.174;2023-10-19T14:30:11;13.35;;;8.88;;
50350;SDS011;36250;48.740;22.174;2023-10-19T14:32:39;8.60;;;7.70;;
50350;SDS011;36250;48.740;22.174;2023-10-19T14:35:07;10.07;;;7.97;;
50350;SDS011;36250;48.740;22.174;2023-10-19T14:37:34;31.33;;;18.00;;
50350;SDS011;36250;48.740;22.174;2023-10-19T14:40:00;24.17;;;14.77;;